sensor_id;sensor_type;location;lat;lon;timestamp;P1;durP1;ratioP1;P2;durP2;ratioP2
15385;SDS011;7791;47.246;9.648;2024-01-10T00:01:23;51.20;;;21.50;;
15385;SDS011;7791;47.246;9.648;2024-01-10T00:04:14;52.03;;;20.63;;
15385;SDS011;7791;47.246;9.648;2024-01-10T00:06:55;54.60;;;20.43;;
15385;SDS011;7791;47.246;9.648;2024-01-10T00:09:30;55.10;;;20.87;;
15385;SDS011;7791;47.246;9.648;2024-01-10T00:12:22;52.33;;;20.93;;
15385;SDS011;7791;47.246;9.648;2024-01-10T00:15:09;56.23;;;21.33;;
15385;SDS011;7791;47.246;9.648;2024-01-10T00:17:58;53.30;;;20.00;;
15385;SDS011;7791;47.246;9.648;2024-01-10T00:20:41;58.97;;;21.20;;
15385;SDS011;7791;47.246;9.648;2024-01-10T00:23:27;53.83;;;21.40;;
15385;SDS011;7791;47.246;9.648;2024-01-10T00:26:09;54.10;;;20.73;;
15385;SDS011;7791;47.246;9.648;2024-01-10T00:29:00;51.13;;;20.37;;
15385;SDS011;7791;47.246;9.648;2024-01-10T00:31:32;50.10;;;19.43;;
15385;SDS011;7791;47.246;9.648;2024-01-10T00:34:17;48.27;;;18.70;;
15385;SDS011;7791;47.246;9.648;2024-01-10T00:37:26;56.27;;;20.53;;
15385;SDS011;7791;47.246;9.648;2024-01-10T00:40:07;52.00;;;20.23;;
15385;SDS011;7791;47.246;9.648;2024-01-10T00:42:47;49.37;;;19.53;;
15385;SDS011;7791;47.246;9.648;2024-01-10T00:45:26;55.07;;;19.60;;
15385;SDS011;7791;47.246;9.648;2024-01-10T00:48:20;51.27;;;20.17;;
15385;SDS011;7791;47.246;9.648;2024-01-10T00:51:09;59.13;;;22.10;;
15385;SDS011;7791;47.246;9.648;2024-01-10T00:54:00;62.00;;;22.60;;
15385;SDS011;7791;47.246;9.648;2024-01-10T01:02:16;61.20;;;22.23;;
15385;SDS011;7791;47.246;9.648;2024-01-10T01:04:49;60.63;;;22.70;;
15385;SDS011;7791;47.246;9.648;2024-01-10T01:07:25;60.70;;;22.10;;
15385;SDS011;7791;47.246;9.648;2024-01-10T01:09:56;65.57;;;23.33;;
15385;SDS011;7791;47.246;9.648;2024-01-10T01:15:25;60.23;;;23.60;;
15385;SDS011;7791;47.246;9.648;2024-01-10T01:18:09;58.33;;;22.60;;
15385;SDS011;7791;47.246;9.648;2024-01-10T01:21:02;60.07;;;22.43;;
15385;SDS011;7791;47.246;9.648;2024-01-10T01:26:32;65.33;;;23.33;;
15385;SDS011;7791;47.246;9.648;2024-01-10T01:29:10;62.77;;;23.23;;
15385;SDS011;7791;47.246;9.648;2024-01-10T01:31:58;62.80;;;22.77;;
15385;SDS011;7791;47.246;9.648;2024-01-10T01:34:44;57.30;;;21.23;;
15385;SDS011;7791;47.246;9.648;2024-01-10T01:37:19;61.40;;;21.73;;
15385;SDS011;7791;47.246;9.648;2024-01-10T01:42:43;58.13;;;21.03;;
15385;SDS011;7791;47.246;9.648;2024-01-10T01:51:17;61.83;;;23.30;;
15385;SDS011;7791;47.246;9.648;2024-01-10T01:53:55;57.60;;;21.87;;
15385;SDS011;7791;47.246;9.648;2024-01-10T01:56:37;59.67;;;22.03;;
15385;SDS011;7791;47.246;9.648;2024-01-10T01:59:23;56.83;;;21.73;;
15385;SDS011;7791;47.246;9.648;2024-01-10T02:01:59;62.83;;;21.77;;
15385;SDS011;7791;47.246;9.648;2024-01-10T02:04:34;66.87;;;22.63;;
15385;SDS011;7791;47.246;9.648;2024-01-10T02:07:22;53.07;;;21.10;;
15385;SDS011;7791;47.246;9.648;2024-01-10T02:10:16;60.87;;;22.40;;
15385;SDS011;7791;47.246;9.648;2024-01-10T02:12:57;63.83;;;22.27;;
15385;SDS011;7791;47.246;9.648;2024-01-10T02:15:33;60.23;;;21.97;;
15385;SDS011;7791;47.246;9.648;2024-01-10T02:18:24;61.70;;;22.50;;
15385;SDS011;7791;47.246;9.648;2024-01-10T02:20:56;59.37;;;22.33;;
15385;SDS011;7791;47.246;9.648;2024-01-10T02:23:50;66.27;;;24.23;;
15385;SDS011;7791;47.246;9.648;2024-01-10T02:26:32;62.57;;;22.73;;
15385;SDS011;7791;47.246;9.648;2024-01-10T02:29:11;60.87;;;22.80;;
15385;SDS011;7791;47.246;9.648;2024-01-10T02:31:53;60.83;;;21.90;;
15385;SDS011;7791;47.246;9.648;2024-01-10T02:34:38;57.30;;;21.27;;
15385;SDS011;7791;47.246;9.648;2024-01-10T02:37:06;60.63;;;22.03;;
15385;SDS011;7791;47.246;9.648;2024-01-10T02:39:47;65.73;;;22.10;;
15385;SDS011;7791;47.246;9.648;2024-01-10T02:42:33;59.20;;;21.97;;
15385;SDS011;7791;47.246;9.648;2024-01-10T02:45:38;61.13;;;23.07;;
15385;SDS011;7791;47.246;9.648;2024-01-10T02:48:28;60.27;;;22.50;;
15385;SDS011;7791;47.246;9.648;2024-01-10T02:51:15;58.93;;;21.93;;
15385;SDS011;7791;47.246;9.648;2024-01-10T02:54:16;60.53;;;22.07;;
15385;SDS011;7791;47.246;9.648;2024-01-10T02:56:52;61.63;;;22.03;;
15385;SDS011;7791;47.246;9.648;2024-01-10T02:59:33;58.13;;;21.90;;
15385;SDS011;7791;47.246;9.648;2024-01-10T03:02:12;69.47;;;23.93;;
15385;SDS011;7791;47.246;9.648;2024-01-10T03:04:47;65.77;;;22.70;;
15385;SDS011;7791;47.246;9.648;2024-01-10T03:07:43;58.10;;;22.87;;
15385;SDS011;7791;47.246;9.648;2024-01-10T03:10:27;58.20;;;22.43;;
15385;SDS011;7791;47.246;9.648;2024-01-10T03:15:51;58.53;;;22.20;;
15385;SDS011;7791;47.246;9.648;2024-01-10T03:18:33;64.97;;;22.50;;
15385;SDS011;7791;47.246;9.648;2024-01-10T03:21:14;66.27;;;22.27;;
15385;SDS011;7791;47.246;9.648;2024-01-10T03:29:35;60.27;;;22.33;;
15385;SDS011;7791;47.246;9.648;2024-01-10T03:32:18;62.63;;;23.37;;
15385;SDS011;7791;47.246;9.648;2024-01-10T03:35:01;65.60;;;22.97;;
15385;SDS011;7791;47.246;9.648;2024-01-10T03:37:44;59.07;;;21.67;;
15385;SDS011;7791;47.246;9.648;2024-01-10T03:40:20;66.33;;;21.40;;
15385;SDS011;7791;47.246;9.648;2024-01-10T03:42:53;56.47;;;21.93;;
15385;SDS011;7791;47.246;9.648;2024-01-10T03:45:33;67.37;;;23.50;;
15385;SDS011;7791;47.246;9.648;2024-01-10T03:51:02;63.77;;;23.13;;
15385;SDS011;7791;47.246;9.648;2024-01-10T03:53:44;63.20;;;20.57;;
15385;SDS011;7791;47.246;9.648;2024-01-10T03:56:17;61.13;;;22.47;;
15385;SDS011;7791;47.246;9.648;2024-01-10T03:58:53;60.43;;;21.53;;
15385;SDS011;7791;47.246;9.648;2024-01-10T04:01:41;63.87;;;22.60;;
15385;SDS011;7791;47.246;9.648;2024-01-10T04:04:26;59.93;;;21.27;;
15385;SDS011;7791;47.246;9.648;2024-01-10T04:07:14;65.73;;;20.23;;
15385;SDS011;7791;47.246;9.648;2024-01-10T04:10:02;59.93;;;20.93;;
15385;SDS011;7791;47.246;9.648;2024-01-10T04:12:42;62.93;;;20.67;;
15385;SDS011;7791;47.246;9.648;2024-01-10T04:18:18;61.10;;;20.30;;
15385;SDS011;7791;47.246;9.648;2024-01-10T04:20:55;63.73;;;20.60;;
15385;SDS011;7791;47.246;9.648;2024-01-10T04:23:41;71.97;;;21.83;;
15385;SDS011;7791;47.246;9.648;2024-01-10T04:26:22;64.77;;;22.57;;
15385;SDS011;7791;47.246;9.648;2024-01-10T04:29:03;64.13;;;22.30;;
15385;SDS011;7791;47.246;9.648;2024-01-10T04:31:35;59.13;;;20.70;;
15385;SDS011;7791;47.246;9.648;2024-01-10T04:34:27;63.77;;;21.60;;
15385;SDS011;7791;47.246;9.648;2024-01-10T04:37:03;63.23;;;20.03;;
15385;SDS011;7791;47.246;9.648;2024-01-10T04:39:35;60.43;;;20.83;;
15385;SDS011;7791;47.246;9.648;2024-01-10T04:45:17;64.67;;;20.73;;
15385;SDS011;7791;47.246;9.648;2024-01-10T04:47:59;63.63;;;20.93;;
15385;SDS011;7791;47.246;9.648;2024-01-10T04:50:34;66.87;;;21.27;;
15385;SDS011;7791;47.246;9.648;2024-01-10T04:53:13;62.23;;;22.13;;
15385;SDS011;7791;47.246;9.648;2024-01-10T04:55:49;63.43;;;21.03;;
15385;SDS011;7791;47.246;9.648;2024-01-10T05:01:37;66.47;;;21.33;;
15385;SDS011;7791;47.246;9.648;2024-01-10T05:09:54;75.07;;;22.83;;
15385;SDS011;7791;47.246;9.648;2024-01-10T05:12:33;61.37;;;22.07;;
15385;SDS011;7791;47.246;9.648;2024-01-10T05:15:04;68.47;;;22.23;;
15385;SDS011;7791;47.246;9.648;2024-01-10T05:17:37;59.53;;;21.53;;
15385;SDS011;7791;47.246;9.648;2024-01-10T05:23:10;66.03;;;21.13;;
15385;SDS011;7791;47.246;9.648;2024-01-10T05:26:10;59.93;;;21.30;;
15385;SDS011;7791;47.246;9.648;2024-01-10T05:29:10;62.00;;;20.20;;
15385;SDS011;7791;47.246;9.648;2024-01-10T05:31:46;63.63;;;20.87;;
15385;SDS011;7791;47.246;9.648;2024-01-10T05:34:27;59.37;;;20.53;;
15385;SDS011;7791;47.246;9.648;2024-01-10T05:37:12;70.43;;;21.30;;
15385;SDS011;7791;47.246;9.648;2024-01-10T05:39:50;74.07;;;23.43;;
15385;SDS011;7791;47.246;9.648;2024-01-10T05:42:37;69.83;;;23.83;;
15385;SDS011;7791;47.246;9.648;2024-01-10T05:45:23;72.33;;;23.00;;
15385;SDS011;7791;47.246;9.648;2024-01-10T05:47:58;77.53;;;24.47;;
15385;SDS011;7791;47.246;9.648;2024-01-10T05:50:53;75.83;;;25.33;;
15385;SDS011;7791;47.246;9.648;2024-01-10T05:53:25;66.20;;;20.57;;
15385;SDS011;7791;47.246;9.648;2024-01-10T05:56:25;64.50;;;20.57;;
15385;SDS011;7791;47.246;9.648;2024-01-10T05:59:10;66.40;;;22.03;;
15385;SDS011;7791;47.246;9.648;2024-01-10T06:01:53;61.83;;;21.30;;
15385;SDS011;7791;47.246;9.648;2024-01-10T06:04:31;68.77;;;22.13;;
15385;SDS011;7791;47.246;9.648;2024-01-10T06:07:13;65.97;;;21.27;;
15385;SDS011;7791;47.246;9.648;2024-01-10T06:09:55;63.07;;;20.57;;
15385;SDS011;7791;47.246;9.648;2024-01-10T06:15:43;61.20;;;20.07;;
15385;SDS011;7791;47.246;9.648;2024-01-10T06:18:29;61.47;;;20.60;;
15385;SDS011;7791;47.246;9.648;2024-01-10T06:21:07;57.37;;;19.30;;
15385;SDS011;7791;47.246;9.648;2024-01-10T06:23:52;65.17;;;21.10;;
15385;SDS011;7791;47.246;9.648;2024-01-10T06:26:46;70.57;;;21.37;;
15385;SDS011;7791;47.246;9.648;2024-01-10T06:32:06;73.70;;;23.10;;
15385;SDS011;7791;47.246;9.648;2024-01-10T06:35:01;67.17;;;20.43;;
15385;SDS011;7791;47.246;9.648;2024-01-10T06:37:46;68.57;;;22.77;;
15385;SDS011;7791;47.246;9.648;2024-01-10T06:46:10;71.80;;;23.63;;
15385;SDS011;7791;47.246;9.648;2024-01-10T06:48:43;70.63;;;23.53;;
15385;SDS011;7791;47.246;9.648;2024-01-10T06:51:16;62.87;;;22.67;;
15385;SDS011;7791;47.246;9.648;2024-01-10T06:56:47;75.00;;;23.23;;
15385;SDS011;7791;47.246;9.648;2024-01-10T06:59:22;73.90;;;23.97;;
15385;SDS011;7791;47.246;9.648;2024-01-10T07:02:10;62.27;;;20.50;;
15385;SDS011;7791;47.246;9.648;2024-01-10T07:07:54;72.17;;;23.03;;
15385;SDS011;7791;47.246;9.648;2024-01-10T07:10:31;67.37;;;21.90;;
15385;SDS011;7791;47.246;9.648;2024-01-10T07:13:20;72.30;;;22.80;;
15385;SDS011;7791;47.246;9.648;2024-01-10T07:15:58;74.20;;;24.70;;
15385;SDS011;7791;47.246;9.648;2024-01-10T07:18:52;67.73;;;21.20;;
15385;SDS011;7791;47.246;9.648;2024-01-10T07:21:41;77.43;;;24.47;;
15385;SDS011;7791;47.246;9.648;2024-01-10T07:24:17;67.93;;;22.23;;
15385;SDS011;7791;47.246;9.648;2024-01-10T07:27:05;70.83;;;23.00;;
15385;SDS011;7791;47.246;9.648;2024-01-10T07:29:43;66.70;;;23.70;;
15385;SDS011;7791;47.246;9.648;2024-01-10T07:32:22;76.30;;;23.33;;
15385;SDS011;7791;47.246;9.648;2024-01-10T07:35:01;84.53;;;25.93;;
15385;SDS011;7791;47.246;9.648;2024-01-10T07:37:42;70.00;;;22.67;;
15385;SDS011;7791;47.246;9.648;2024-01-10T07:40:30;73.93;;;24.03;;
15385;SDS011;7791;47.246;9.648;2024-01-10T07:43:10;74.93;;;24.57;;
15385;SDS011;7791;47.246;9.648;2024-01-10T07:45:55;74.27;;;21.80;;
15385;SDS011;7791;47.246;9.648;2024-01-10T07:48:30;70.97;;;23.30;;
15385;SDS011;7791;47.246;9.648;2024-01-10T07:51:16;76.63;;;25.70;;
15385;SDS011;7791;47.246;9.648;2024-01-10T07:53:57;75.47;;;24.97;;
15385;SDS011;7791;47.246;9.648;2024-01-10T07:56:30;88.07;;;30.00;;
15385;SDS011;7791;47.246;9.648;2024-01-10T08:02:00;78.03;;;25.10;;
15385;SDS011;7791;47.246;9.648;2024-01-10T08:04:52;80.83;;;27.50;;
15385;SDS011;7791;47.246;9.648;2024-01-10T08:07:34;81.60;;;28.17;;
15385;SDS011;7791;47.246;9.648;2024-01-10T08:10:12;82.10;;;26.57;;
15385;SDS011;7791;47.246;9.648;2024-01-10T08:13:02;78.83;;;26.07;;
15385;SDS011;7791;47.246;9.648;2024-01-10T08:21:16;80.20;;;28.33;;
15385;SDS011;7791;47.246;9.648;2024-01-10T08:23:54;75.93;;;26.70;;
15385;SDS011;7791;47.246;9.648;2024-01-10T08:26:50;75.00;;;26.30;;
15385;SDS011;7791;47.246;9.648;2024-01-10T08:29:26;81.53;;;25.83;;
15385;SDS011;7791;47.246;9.648;2024-01-10T08:32:06;90.30;;;28.90;;
15385;SDS011;7791;47.246;9.648;2024-01-10T08:34:39;83.73;;;29.30;;
15385;SDS011;7791;47.246;9.648;2024-01-10T08:37:30;77.20;;;29.90;;
15385;SDS011;7791;47.246;9.648;2024-01-10T08:40:07;79.50;;;29.57;;
15385;SDS011;7791;47.246;9.648;2024-01-10T08:51:15;65.73;;;27.13;;
15385;SDS011;7791;47.246;9.648;2024-01-10T08:54:13;67.10;;;28.20;;
15385;SDS011;7791;47.246;9.648;2024-01-10T08:56:42;55.57;;;24.33;;
15385;SDS011;7791;47.246;9.648;2024-01-10T08:59:32;56.23;;;24.53;;
15385;SDS011;7791;47.246;9.648;2024-01-10T09:02:15;53.77;;;23.07;;
15385;SDS011;7791;47.246;9.648;2024-01-10T09:05:09;50.77;;;22.77;;
15385;SDS011;7791;47.246;9.648;2024-01-10T09:07:39;45.80;;;21.33;;
15385;SDS011;7791;47.246;9.648;2024-01-10T09:10:17;49.07;;;22.53;;
15385;SDS011;7791;47.246;9.648;2024-01-10T09:13:06;45.70;;;20.93;;
15385;SDS011;7791;47.246;9.648;2024-01-10T09:18:59;41.77;;;18.80;;
15385;SDS011;7791;47.246;9.648;2024-01-10T09:21:35;37.37;;;19.47;;
15385;SDS011;7791;47.246;9.648;2024-01-10T09:24:10;39.27;;;19.30;;
15385;SDS011;7791;47.246;9.648;2024-01-10T09:26:55;37.67;;;18.13;;
15385;SDS011;7791;47.246;9.648;2024-01-10T09:29:40;32.20;;;16.07;;
15385;SDS011;7791;47.246;9.648;2024-01-10T09:32:12;42.23;;;19.80;;
15385;SDS011;7791;47.246;9.648;2024-01-10T09:34:50;34.13;;;16.73;;
15385;SDS011;7791;47.246;9.648;2024-01-10T09:37:29;32.83;;;17.10;;
15385;SDS011;7791;47.246;9.648;2024-01-10T09:40:07;33.40;;;17.40;;
15385;SDS011;7791;47.246;9.648;2024-01-10T09:42:56;31.73;;;16.37;;
15385;SDS011;7791;47.246;9.648;2024-01-10T09:45:34;33.07;;;15.83;;
15385;SDS011;7791;47.246;9.648;2024-01-10T09:48:21;34.43;;;16.97;;
15385;SDS011;7791;47.246;9.648;2024-01-10T09:51:02;32.70;;;16.30;;
15385;SDS011;7791;47.246;9.648;2024-01-10T09:53:40;33.13;;;15.93;;
15385;SDS011;7791;47.246;9.648;2024-01-10T09:56:34;38.77;;;18.80;;
15385;SDS011;7791;47.246;9.648;2024-01-10T09:59:19;36.43;;;17.37;;
15385;SDS011;7791;47.246;9.648;2024-01-10T10:01:57;34.73;;;17.83;;
15385;SDS011;7791;47.246;9.648;2024-01-10T10:13:36;31.97;;;17.00;;
15385;SDS011;7791;47.246;9.648;2024-01-10T10:16:22;31.43;;;17.20;;
15385;SDS011;7791;47.246;9.648;2024-01-10T10:19:01;35.50;;;18.47;;
15385;SDS011;7791;47.246;9.648;2024-01-10T10:24:40;33.77;;;18.23;;
15385;SDS011;7791;47.246;9.648;2024-01-10T10:27:24;34.60;;;16.93;;
15385;SDS011;7791;47.246;9.648;2024-01-10T10:30:09;34.10;;;17.50;;
15385;SDS011;7791;47.246;9.648;2024-01-10T10:32:45;37.67;;;18.73;;
15385;SDS011;7791;47.246;9.648;2024-01-10T10:35:21;34.90;;;18.30;;
15385;SDS011;7791;47.246;9.648;2024-01-10T10:38:03;40.13;;;18.73;;
15385;SDS011;7791;47.246;9.648;2024-01-10T10:40:41;30.77;;;17.20;;
15385;SDS011;7791;47.246;9.648;2024-01-10T10:43:19;33.70;;;17.13;;
15385;SDS011;7791;47.246;9.648;2024-01-10T10:46:06;33.93;;;17.63;;
15385;SDS011;7791;47.246;9.648;2024-01-10T10:48:54;31.77;;;16.57;;
15385;SDS011;7791;47.246;9.648;2024-01-10T10:51:51;30.00;;;16.30;;
15385;SDS011;7791;47.246;9.648;2024-01-10T10:54:54;34.90;;;17.93;;
15385;SDS011;7791;47.246;9.648;2024-01-10T10:57:42;36.53;;;17.57;;
15385;SDS011;7791;47.246;9.648;2024-01-10T11:00:44;36.00;;;17.43;;
15385;SDS011;7791;47.246;9.648;2024-01-10T11:03:24;36.23;;;17.63;;
15385;SDS011;7791;47.246;9.648;2024-01-10T11:06:05;37.67;;;17.67;;
15385;SDS011;7791;47.246;9.648;2024-01-10T11:08:51;33.23;;;17.00;;
15385;SDS011;7791;47.246;9.648;2024-01-10T11:11:34;36.00;;;18.37;;
15385;SDS011;7791;47.246;9.648;2024-01-10T11:14:21;39.23;;;18.83;;
15385;SDS011;7791;47.246;9.648;2024-01-10T11:26:13;38.03;;;19.10;;
15385;SDS011;7791;47.246;9.648;2024-01-10T11:29:05;38.07;;;18.93;;
15385;SDS011;7791;47.246;9.648;2024-01-10T11:31:50;38.83;;;19.50;;
15385;SDS011;7791;47.246;9.648;2024-01-10T11:34:53;39.13;;;20.23;;
15385;SDS011;7791;47.246;9.648;2024-01-10T11:37:47;42.57;;;20.90;;
15385;SDS011;7791;47.246;9.648;2024-01-10T11:40:45;42.03;;;20.63;;
15385;SDS011;7791;47.246;9.648;2024-01-10T11:43:33;50.40;;;23.43;;
15385;SDS011;7791;47.246;9.648;2024-01-10T11:46:43;43.97;;;20.67;;
15385;SDS011;7791;47.246;9.648;2024-01-10T11:52:08;39.60;;;20.33;;
15385;SDS011;7791;47.246;9.648;2024-01-10T11:54:54;45.03;;;20.83;;
15385;SDS011;7791;47.246;9.648;2024-01-10T11:57:35;45.50;;;21.30;;
15385;SDS011;7791;47.246;9.648;2024-01-10T12:00:41;43.63;;;19.80;;
15385;SDS011;7791;47.246;9.648;2024-01-10T12:03:22;47.07;;;21.13;;
15385;SDS011;7791;47.246;9.648;2024-01-10T12:06:02;50.30;;;21.43;;
15385;SDS011;7791;47.246;9.648;2024-01-10T12:08:42;49.10;;;22.00;;
15385;SDS011;7791;47.246;9.648;2024-01-10T12:11:20;54.10;;;23.40;;
15385;SDS011;7791;47.246;9.648;2024-01-10T12:14:08;49.60;;;23.00;;
15385;SDS011;7791;47.246;9.648;2024-01-10T12:16:41;46.40;;;22.17;;
15385;SDS011;7791;47.246;9.648;2024-01-10T12:19:28;50.23;;;22.00;;
15385;SDS011;7791;47.246;9.648;2024-01-10T12:22:09;50.13;;;21.63;;
15385;SDS011;7791;47.246;9.648;2024-01-10T12:25:03;52.43;;;22.53;;
15385;SDS011;7791;47.246;9.648;2024-01-10T12:30:40;49.37;;;20.00;;
15385;SDS011;7791;47.246;9.648;2024-01-10T12:33:27;49.00;;;21.80;;
15385;SDS011;7791;47.246;9.648;2024-01-10T12:36:07;51.83;;;22.87;;
15385;SDS011;7791;47.246;9.648;2024-01-10T12:41:37;45.83;;;20.63;;
15385;SDS011;7791;47.246;9.648;2024-01-10T12:44:26;44.30;;;19.90;;
15385;SDS011;7791;47.246;9.648;2024-01-10T12:47:08;51.43;;;22.53;;
15385;SDS011;7791;47.246;9.648;2024-01-10T12:50:00;48.70;;;21.53;;
15385;SDS011;7791;47.246;9.648;2024-01-10T12:52:41;51.87;;;22.20;;
15385;SDS011;7791;47.246;9.648;2024-01-10T12:55:25;54.53;;;23.37;;
15385;SDS011;7791;47.246;9.648;2024-01-10T12:58:16;52.60;;;21.53;;
15385;SDS011;7791;47.246;9.648;2024-01-10T13:00:51;54.47;;;22.30;;
15385;SDS011;7791;47.246;9.648;2024-01-10T13:06:28;52.37;;;22.33;;
15385;SDS011;7791;47.246;9.648;2024-01-10T13:09:00;47.73;;;21.33;;
15385;SDS011;7791;47.246;9.648;2024-01-10T13:11:52;59.53;;;22.87;;
15385;SDS011;7791;47.246;9.648;2024-01-10T13:14:29;54.27;;;22.20;;
15385;SDS011;7791;47.246;9.648;2024-01-10T13:17:07;59.90;;;23.50;;
15385;SDS011;7791;47.246;9.648;2024-01-10T13:19:42;57.07;;;22.43;;
15385;SDS011;7791;47.246;9.648;2024-01-10T13:22:24;53.80;;;22.60;;
15385;SDS011;7791;47.246;9.648;2024-01-10T13:24:59;52.80;;;22.00;;
15385;SDS011;7791;47.246;9.648;2024-01-10T13:27:40;53.10;;;22.47;;
15385;SDS011;7791;47.246;9.648;2024-01-10T13:33:04;56.07;;;21.80;;
15385;SDS011;7791;47.246;9.648;2024-01-10T13:35:49;52.70;;;22.40;;
15385;SDS011;7791;47.246;9.648;2024-01-10T13:38:28;53.17;;;22.07;;
15385;SDS011;7791;47.246;9.648;2024-01-10T13:41:06;52.97;;;23.10;;
15385;SDS011;7791;47.246;9.648;2024-01-10T13:43:45;55.13;;;21.50;;
15385;SDS011;7791;47.246;9.648;2024-01-10T13:46:22;54.33;;;22.43;;
15385;SDS011;7791;47.246;9.648;2024-01-10T13:51:56;58.20;;;23.67;;
15385;SDS011;7791;47.246;9.648;2024-01-10T13:54:32;49.53;;;21.20;;
15385;SDS011;7791;47.246;9.648;2024-01-10T14:03:04;52.30;;;22.17;;
15385;SDS011;7791;47.246;9.648;2024-01-10T14:05:37;54.83;;;21.73;;
15385;SDS011;7791;47.246;9.648;2024-01-10T14:08:28;52.57;;;21.67;;
15385;SDS011;7791;47.246;9.648;2024-01-10T14:10:57;55.17;;;22.80;;
15385;SDS011;7791;47.246;9.648;2024-01-10T14:13:34;57.63;;;22.00;;
15385;SDS011;7791;47.246;9.648;2024-01-10T14:16:13;58.00;;;23.40;;
15385;SDS011;7791;47.246;9.648;2024-01-10T14:21:31;55.00;;;22.27;;
15385;SDS011;7791;47.246;9.648;2024-01-10T14:24:01;53.00;;;23.30;;
15385;SDS011;7791;47.246;9.648;2024-01-10T14:29:22;55.83;;;22.87;;
15385;SDS011;7791;47.246;9.648;2024-01-10T14:32:00;57.70;;;22.63;;
15385;SDS011;7791;47.246;9.648;2024-01-10T14:34:45;56.23;;;22.73;;
15385;SDS011;7791;47.246;9.648;2024-01-10T14:37:20;59.77;;;23.73;;
15385;SDS011;7791;47.246;9.648;2024-01-10T14:39:57;60.83;;;23.87;;
15385;SDS011;7791;47.246;9.648;2024-01-10T14:42:37;59.83;;;24.43;;
15385;SDS011;7791;47.246;9.648;2024-01-10T14:45:37;59.03;;;23.13;;
15385;SDS011;7791;47.246;9.648;2024-01-10T14:48:15;64.43;;;24.27;;
15385;SDS011;7791;47.246;9.648;2024-01-10T14:50:45;62.17;;;24.13;;
15385;SDS011;7791;47.246;9.648;2024-01-10T14:53:41;62.83;;;24.23;;
15385;SDS011;7791;47.246;9.648;2024-01-10T14:56:20;58.60;;;23.17;;
15385;SDS011;7791;47.246;9.648;2024-01-10T14:58:56;60.87;;;22.77;;
15385;SDS011;7791;47.246;9.648;2024-01-10T15:04:30;59.00;;;23.87;;
15385;SDS011;7791;47.246;9.648;2024-01-10T15:07:15;65.40;;;23.30;;
15385;SDS011;7791;47.246;9.648;2024-01-10T15:10:01;59.07;;;24.83;;
15385;SDS011;7791;47.246;9.648;2024-01-10T15:15:33;61.23;;;23.20;;
15385;SDS011;7791;47.246;9.648;2024-01-10T15:21:11;63.27;;;25.27;;
15385;SDS011;7791;47.246;9.648;2024-01-10T15:23:53;63.63;;;24.27;;
15385;SDS011;7791;47.246;9.648;2024-01-10T15:26:32;65.27;;;25.13;;
15385;SDS011;7791;47.246;9.648;2024-01-10T15:31:57;60.80;;;23.27;;
15385;SDS011;7791;47.246;9.648;2024-01-10T15:34:42;61.60;;;24.37;;
15385;SDS011;7791;47.246;9.648;2024-01-10T15:37:20;60.33;;;21.70;;
15385;SDS011;7791;47.246;9.648;2024-01-10T15:40:05;58.77;;;22.83;;
15385;SDS011;7791;47.246;9.648;2024-01-10T15:42:40;63.40;;;24.00;;
15385;SDS011;7791;47.246;9.648;2024-01-10T15:45:15;64.50;;;23.77;;
15385;SDS011;7791;47.246;9.648;2024-01-10T15:47:53;61.70;;;23.03;;
15385;SDS011;7791;47.246;9.648;2024-01-10T15:50:33;60.87;;;23.47;;
15385;SDS011;7791;47.246;9.648;2024-01-10T15:53:12;66.53;;;23.93;;
15385;SDS011;7791;47.246;9.648;2024-01-10T15:55:58;64.10;;;23.87;;
15385;SDS011;7791;47.246;9.648;2024-01-10T15:58:35;66.17;;;23.47;;
15385;SDS011;7791;47.246;9.648;2024-01-10T16:04:15;67.23;;;25.17;;
15385;SDS011;7791;47.246;9.648;2024-01-10T16:06:47;66.07;;;24.80;;
15385;SDS011;7791;47.246;9.648;2024-01-10T16:12:24;65.27;;;24.27;;
15385;SDS011;7791;47.246;9.648;2024-01-10T16:15:04;69.47;;;24.50;;
15385;SDS011;7791;47.246;9.648;2024-01-10T16:17:57;70.63;;;24.47;;
15385;SDS011;7791;47.246;9.648;2024-01-10T16:20:54;69.43;;;24.97;;
15385;SDS011;7791;47.246;9.648;2024-01-10T16:23:27;71.93;;;25.47;;
15385;SDS011;7791;47.246;9.648;2024-01-10T16:26:08;69.93;;;25.23;;
15385;SDS011;7791;47.246;9.648;2024-01-10T16:31:26;79.63;;;27.20;;
15385;SDS011;7791;47.246;9.648;2024-01-10T16:34:05;68.67;;;25.70;;
15385;SDS011;7791;47.246;9.648;2024-01-10T16:36:38;71.83;;;25.73;;
15385;SDS011;7791;47.246;9.648;2024-01-10T16:39:20;71.87;;;26.60;;
15385;SDS011;7791;47.246;9.648;2024-01-10T16:41:57;72.63;;;25.67;;
15385;SDS011;7791;47.246;9.648;2024-01-10T16:44:28;75.07;;;26.40;;
15385;SDS011;7791;47.246;9.648;2024-01-10T16:47:00;86.47;;;28.20;;
15385;SDS011;7791;47.246;9.648;2024-01-10T16:50:11;69.97;;;26.30;;
15385;SDS011;7791;47.246;9.648;2024-01-10T16:52:35;75.00;;;27.33;;
15385;SDS011;7791;47.246;9.648;2024-01-10T16:55:24;77.70;;;28.60;;
15385;SDS011;7791;47.246;9.648;2024-01-10T16:58:05;81.27;;;29.10;;
15385;SDS011;7791;47.246;9.648;2024-01-10T17:01:08;87.00;;;32.53;;
15385;SDS011;7791;47.246;9.648;2024-01-10T17:03:58;80.63;;;29.43;;
15385;SDS011;7791;47.246;9.648;2024-01-10T17:06:58;84.30;;;30.20;;
15385;SDS011;7791;47.246;9.648;2024-01-10T17:09:57;86.30;;;31.63;;
15385;SDS011;7791;47.246;9.648;2024-01-10T17:12:30;88.20;;;30.00;;
15385;SDS011;7791;47.246;9.648;2024-01-10T17:15:03;83.27;;;30.20;;
15385;SDS011;7791;47.246;9.648;2024-01-10T17:17:59;81.60;;;28.43;;
15385;SDS011;7791;47.246;9.648;2024-01-10T17:20:38;92.57;;;31.97;;
15385;SDS011;7791;47.246;9.648;2024-01-10T17:26:08;84.00;;;30.77;;
15385;SDS011;7791;47.246;9.648;2024-01-10T17:28:49;85.93;;;31.60;;
15385;SDS011;7791;47.246;9.648;2024-01-10T17:31:22;90.50;;;31.67;;
15385;SDS011;7791;47.246;9.648;2024-01-10T17:33:56;91.10;;;34.33;;
15385;SDS011;7791;47.246;9.648;2024-01-10T17:36:38;75.97;;;31.07;;
15385;SDS011;7791;47.246;9.648;2024-01-10T17:39:29;78.83;;;31.63;;
15385;SDS011;7791;47.246;9.648;2024-01-10T17:42:09;92.10;;;31.90;;
15385;SDS011;7791;47.246;9.648;2024-01-10T17:44:44;85.20;;;31.30;;
15385;SDS011;7791;47.246;9.648;2024-01-10T17:47:24;77.50;;;30.13;;
15385;SDS011;7791;47.246;9.648;2024-01-10T17:50:03;149.47;;;57.90;;
15385;SDS011;7791;47.246;9.648;2024-01-10T17:52:44;146.33;;;58.70;;
15385;SDS011;7791;47.246;9.648;2024-01-10T17:55:26;115.50;;;46.20;;
15385;SDS011;7791;47.246;9.648;2024-01-10T17:58:02;85.73;;;36.07;;
15385;SDS011;7791;47.246;9.648;2024-01-10T18:00:37;84.97;;;31.63;;
15385;SDS011;7791;47.246;9.648;2024-01-10T18:03:24;89.87;;;33.33;;
15385;SDS011;7791;47.246;9.648;2024-01-10T18:06:05;90.83;;;31.93;;
15385;SDS011;7791;47.246;9.648;2024-01-10T18:08:54;78.00;;;28.83;;
15385;SDS011;7791;47.246;9.648;2024-01-10T18:11:31;78.63;;;29.90;;
15385;SDS011;7791;47.246;9.648;2024-01-10T18:14:25;79.40;;;30.13;;
15385;SDS011;7791;47.246;9.648;2024-01-10T18:17:07;82.27;;;31.70;;
15385;SDS011;7791;47.246;9.648;2024-01-10T18:19:42;87.83;;;31.63;;
15385;SDS011;7791;47.246;9.648;2024-01-10T18:22:26;86.30;;;31.90;;
15385;SDS011;7791;47.246;9.648;2024-01-10T18:25:10;87.97;;;33.70;;
15385;SDS011;7791;47.246;9.648;2024-01-10T18:27:46;106.10;;;38.17;;
15385;SDS011;7791;47.246;9.648;2024-01-10T18:33:31;101.90;;;37.70;;
15385;SDS011;7791;47.246;9.648;2024-01-10T18:36:09;103.03;;;37.43;;
15385;SDS011;7791;47.246;9.648;2024-01-10T18:38:49;99.97;;;35.90;;
15385;SDS011;7791;47.246;9.648;2024-01-10T18:44:22;86.43;;;30.03;;
15385;SDS011;7791;47.246;9.648;2024-01-10T18:46:57;73.77;;;29.57;;